sensor_id;sensor_type;location;lat;lon;timestamp;P1;durP1;ratioP1;P2;durP2;ratioP2
46589;SDS011;32313;48.722;9.362;2024-02-23T00:01:43;4.67;;;4.43;;
46589;SDS011;32313;48.722;9.362;2024-02-23T00:04:10;3.53;;;3.43;;
46589;SDS011;32313;48.722;9.362;2024-02-23T00:06:36;3.77;;;3.67;;
46589;SDS011;32313;48.722;9.362;2024-02-23T00:09:01;3.20;;;3.10;;
46589;SDS011;32313;48.722;9.362;2024-02-23T00:11:27;3.53;;;3.43;;
46589;SDS011;32313;48.722;9.362;2024-02-23T00:13:53;3.40;;;3.30;;
46589;SDS011;32313;48.722;9.362;2024-02-23T00:16:19;3.77;;;3.67;;
46589;SDS011;32313;48.722;9.362;2024-02-23T00:18:45;3.77;;;3.57;;
46589;SDS011;32313;48.722;9.362;2024-02-23T00:21:10;3.70;;;3.60;;
46589;SDS011;32313;48.722;9.362;2024-02-23T00:23:36;3.50;;;3.40;;
46589;SDS011;32313;48.722;9.362;2024-02-23T00:26:02;3.60;;;3.50;;
46589;SDS011;32313;48.722;9.362;2024-02-23T00:28:29;3.50;;;3.40;;
46589;SDS011;32313;48.722;9.362;2024-02-23T00:30:54;3.70;;;3.60;;
46589;SDS011;32313;48.722;9.362;2024-02-23T00:33:20;3.53;;;3.40;;
46589;SDS011;32313;48.722;9.362;2024-02-23T00:35:46;3.80;;;3.63;;
46589;SDS011;32313;48.722;9.362;2024-02-23T00:38:11;3.70;;;3.60;;
46589;SDS011;32313;48.722;9.362;2024-02-23T00:40:37;3.73;;;3.60;;
46589;SDS011;32313;48.722;9.362;2024-02-23T00:43:03;4.20;;;3.97;;
46589;SDS011;32313;48.722;9.362;2024-02-23T00:45:29;4.17;;;3.97;;
46589;SDS011;32313;48.722;9.362;2024-02-23T00:47:55;3.70;;;3.60;;
46589;SDS011;32313;48.722;9.362;2024-02-23T00:50:22;3.63;;;3.50;;
46589;SDS011;32313;48.722;9.362;2024-02-23T00:52:51;3.70;;;3.60;;
46589;SDS011;32313;48.722;9.362;2024-02-23T00:55:17;4.07;;;3.87;;
46589;SDS011;32313;48.722;9.362;2024-02-23T00:57:43;4.03;;;3.93;;
46589;SDS011;32313;48.722;9.362;2024-02-23T01:00:09;3.90;;;3.80;;
46589;SDS011;32313;48.722;9.362;2024-02-23T01:02:35;3.63;;;3.43;;
46589;SDS011;32313;48.722;9.362;2024-02-23T01:05:01;3.70;;;3.50;;
46589;SDS011;32313;48.722;9.362;2024-02-23T01:07:27;3.87;;;3.67;;
46589;SDS011;32313;48.722;9.362;2024-02-23T01:09:53;3.83;;;3.63;;
46589;SDS011;32313;48.722;9.362;2024-02-23T01:12:18;3.70;;;3.50;;
46589;SDS011;32313;48.722;9.362;2024-02-23T01:14:44;3.77;;;3.50;;
46589;SDS011;32313;48.722;9.362;2024-02-23T01:17:13;3.67;;;3.47;;
46589;SDS011;32313;48.722;9.362;2024-02-23T01:19:40;4.47;;;4.17;;
46589;SDS011;32313;48.722;9.362;2024-02-23T01:22:07;3.97;;;3.77;;
46589;SDS011;32313;48.722;9.362;2024-02-23T01:24:33;3.97;;;3.57;;
46589;SDS011;32313;48.722;9.362;2024-02-23T01:26:59;3.80;;;3.60;;
46589;SDS011;32313;48.722;9.362;2024-02-23T01:29:25;3.77;;;3.57;;
46589;SDS011;32313;48.722;9.362;2024-02-23T01:31:51;4.47;;;4.27;;
46589;SDS011;32313;48.722;9.362;2024-02-23T01:34:19;3.70;;;3.50;;
46589;SDS011;32313;48.722;9.362;2024-02-23T01:36:49;3.93;;;3.83;;
46589;SDS011;32313;48.722;9.362;2024-02-23T01:39:14;4.13;;;3.93;;
46589;SDS011;32313;48.722;9.362;2024-02-23T01:41:40;3.70;;;3.60;;
46589;SDS011;32313;48.722;9.362;2024-02-23T01:44:07;3.80;;;3.70;;
46589;SDS011;32313;48.722;9.362;2024-02-23T01:46:33;4.10;;;3.80;;
46589;SDS011;32313;48.722;9.362;2024-02-23T01:48:59;4.23;;;4.03;;
46589;SDS011;32313;48.722;9.362;2024-02-23T01:51:25;4.13;;;3.80;;
46589;SDS011;32313;48.722;9.362;2024-02-23T01:53:51;4.27;;;4.07;;
46589;SDS011;32313;48.722;9.362;2024-02-23T01:56:16;4.30;;;3.87;;
46589;SDS011;32313;48.722;9.362;2024-02-23T01:58:43;4.43;;;4.13;;
46589;SDS011;32313;48.722;9.362;2024-02-23T02:01:09;4.23;;;4.03;;
46589;SDS011;32313;48.722;9.362;2024-02-23T02:03:36;4.30;;;4.10;;
46589;SDS011;32313;48.722;9.362;2024-02-23T02:06:04;4.53;;;4.23;;
46589;SDS011;32313;48.722;9.362;2024-02-23T02:08:34;4.40;;;4.13;;
46589;SDS011;32313;48.722;9.362;2024-02-23T02:11:00;4.57;;;4.20;;
46589;SDS011;32313;48.722;9.362;2024-02-23T02:13:27;5.93;;;3.90;;
46589;SDS011;32313;48.722;9.362;2024-02-23T02:15:54;4.20;;;3.90;;
46589;SDS011;32313;48.722;9.362;2024-02-23T02:18:19;4.30;;;3.90;;
46589;SDS011;32313;48.722;9.362;2024-02-23T02:20:55;5.00;;;4.60;;
46589;SDS011;32313;48.722;9.362;2024-02-23T02:23:24;4.63;;;4.43;;
46589;SDS011;32313;48.722;9.362;2024-02-23T02:25:53;5.10;;;4.80;;
46589;SDS011;32313;48.722;9.362;2024-02-23T02:28:23;4.57;;;4.33;;
46589;SDS011;32313;48.722;9.362;2024-02-23T02:30:53;4.77;;;4.57;;
46589;SDS011;32313;48.722;9.362;2024-02-23T02:33:18;4.57;;;4.23;;
46589;SDS011;32313;48.722;9.362;2024-02-23T02:35:45;4.93;;;4.60;;
46589;SDS011;32313;48.722;9.362;2024-02-23T02:38:11;4.33;;;4.10;;
46589;SDS011;32313;48.722;9.362;2024-02-23T02:40:37;4.50;;;4.10;;
46589;SDS011;32313;48.722;9.362;2024-02-23T02:43:03;4.50;;;4.30;;
46589;SDS011;32313;48.722;9.362;2024-02-23T02:45:29;4.50;;;4.30;;
46589;SDS011;32313;48.722;9.362;2024-02-23T02:47:55;5.07;;;4.53;;
46589;SDS011;32313;48.722;9.362;2024-02-23T02:50:22;4.23;;;4.03;;
46589;SDS011;32313;48.722;9.362;2024-02-23T02:52:48;4.73;;;4.53;;
46589;SDS011;32313;48.722;9.362;2024-02-23T02:55:13;4.77;;;4.37;;
46589;SDS011;32313;48.722;9.362;2024-02-23T02:57:39;5.23;;;4.50;;
46589;SDS011;32313;48.722;9.362;2024-02-23T03:00:05;4.53;;;4.33;;
46589;SDS011;32313;48.722;9.362;2024-02-23T03:02:34;4.90;;;4.60;;
46589;SDS011;32313;48.722;9.362;2024-02-23T03:05:00;4.73;;;4.30;;
46589;SDS011;32313;48.722;9.362;2024-02-23T03:07:26;4.10;;;3.90;;
46589;SDS011;32313;48.722;9.362;2024-02-23T03:09:52;4.30;;;4.10;;
46589;SDS011;32313;48.722;9.362;2024-02-23T03:12:17;4.70;;;4.40;;
46589;SDS011;32313;48.722;9.362;2024-02-23T03:14:44;4.63;;;4.43;;
46589;SDS011;32313;48.722;9.362;2024-02-23T03:17:09;3.90;;;3.70;;
46589;SDS011;32313;48.722;9.362;2024-02-23T03:19:35;4.20;;;4.00;;
46589;SDS011;32313;48.722;9.362;2024-02-23T03:22:01;4.33;;;4.13;;
46589;SDS011;32313;48.722;9.362;2024-02-23T03:24:27;4.53;;;4.33;;
46589;SDS011;32313;48.722;9.362;2024-02-23T03:26:53;4.10;;;3.90;;
46589;SDS011;32313;48.722;9.362;2024-02-23T03:29:19;4.50;;;4.30;;
46589;SDS011;32313;48.722;9.362;2024-02-23T03:31:45;4.27;;;4.07;;
46589;SDS011;32313;48.722;9.362;2024-02-23T03:34:11;4.30;;;4.10;;
46589;SDS011;32313;48.722;9.362;2024-02-23T03:36:38;4.33;;;4.13;;
46589;SDS011;32313;48.722;9.362;2024-02-23T03:39:04;4.70;;;4.50;;
46589;SDS011;32313;48.722;9.362;2024-02-23T03:41:29;4.40;;;4.20;;
46589;SDS011;32313;48.722;9.362;2024-02-23T03:43:55;4.30;;;4.13;;
46589;SDS011;32313;48.722;9.362;2024-02-23T03:46:20;4.40;;;4.17;;
46589;SDS011;32313;48.722;9.362;2024-02-23T03:48:47;4.70;;;4.30;;
46589;SDS011;32313;48.722;9.362;2024-02-23T03:51:12;4.77;;;4.47;;
46589;SDS011;32313;48.722;9.362;2024-02-23T03:53:38;4.80;;;4.50;;
46589;SDS011;32313;48.722;9.362;2024-02-23T03:56:04;4.90;;;4.60;;
46589;SDS011;32313;48.722;9.362;2024-02-23T03:58:30;4.40;;;4.20;;
46589;SDS011;32313;48.722;9.362;2024-02-23T04:00:55;5.27;;;4.87;;
46589;SDS011;32313;48.722;9.362;2024-02-23T04:03:21;5.73;;;5.23;;
46589;SDS011;32313;48.722;9.362;2024-02-23T04:05:47;4.40;;;4.10;;
46589;SDS011;32313;48.722;9.362;2024-02-23T04:08:12;4.17;;;3.97;;
46589;SDS011;32313;48.722;9.362;2024-02-23T04:10:38;4.33;;;4.07;;
46589;SDS011;32313;48.722;9.362;2024-02-23T04:13:04;4.53;;;4.33;;
46589;SDS011;32313;48.722;9.362;2024-02-23T04:15:31;4.47;;;4.17;;
46589;SDS011;32313;48.722;9.362;2024-02-23T04:17:56;4.63;;;4.43;;
46589;SDS011;32313;48.722;9.362;2024-02-23T04:20:22;4.70;;;4.40;;
46589;SDS011;32313;48.722;9.362;2024-02-23T04:22:48;4.77;;;4.57;;
46589;SDS011;32313;48.722;9.362;2024-02-23T04:25:13;4.20;;;4.00;;
46589;SDS011;32313;48.722;9.362;2024-02-23T04:27:39;4.70;;;4.40;;
46589;SDS011;32313;48.722;9.362;2024-02-23T04:30:05;4.73;;;4.53;;
46589;SDS011;32313;48.722;9.362;2024-02-23T04:32:31;4.67;;;4.37;;
46589;SDS011;32313;48.722;9.362;2024-02-23T04:34:56;4.27;;;4.07;;
46589;SDS011;32313;48.722;9.362;2024-02-23T04:37:22;4.50;;;4.30;;
46589;SDS011;32313;48.722;9.362;2024-02-23T04:39:48;5.03;;;4.73;;
46589;SDS011;32313;48.722;9.362;2024-02-23T04:42:14;4.80;;;4.57;;
46589;SDS011;32313;48.722;9.362;2024-02-23T04:44:43;5.10;;;4.87;;
46589;SDS011;32313;48.722;9.362;2024-02-23T04:47:08;5.03;;;4.77;;
46589;SDS011;32313;48.722;9.362;2024-02-23T04:49:34;5.20;;;4.83;;
46589;SDS011;32313;48.722;9.362;2024-02-23T04:52:00;4.97;;;4.60;;
46589;SDS011;32313;48.722;9.362;2024-02-23T04:54:26;5.33;;;5.03;;
46589;SDS011;32313;48.722;9.362;2024-02-23T04:56:52;6.10;;;4.97;;
46589;SDS011;32313;48.722;9.362;2024-02-23T04:59:17;4.90;;;4.70;;
46589;SDS011;32313;48.722;9.362;2024-02-23T05:01:43;4.80;;;4.60;;
46589;SDS011;32313;48.722;9.362;2024-02-23T05:04:09;4.70;;;4.40;;
46589;SDS011;32313;48.722;9.362;2024-02-23T05:06:34;5.10;;;4.90;;
46589;SDS011;32313;48.722;9.362;2024-02-23T05:09:00;5.73;;;5.43;;
46589;SDS011;32313;48.722;9.362;2024-02-23T05:11:26;5.17;;;4.80;;
46589;SDS011;32313;48.722;9.362;2024-02-23T05:13:52;5.13;;;4.80;;
46589;SDS011;32313;48.722;9.362;2024-02-23T05:16:19;5.90;;;5.33;;
46589;SDS011;32313;48.722;9.362;2024-02-23T05:18:45;5.63;;;5.23;;
46589;SDS011;32313;48.722;9.362;2024-02-23T05:21:12;5.67;;;5.37;;
46589;SDS011;32313;48.722;9.362;2024-02-23T05:23:40;4.97;;;4.73;;
46589;SDS011;32313;48.722;9.362;2024-02-23T05:26:05;5.80;;;5.30;;
46589;SDS011;32313;48.722;9.362;2024-02-23T05:28:31;6.37;;;6.03;;
46589;SDS011;32313;48.722;9.362;2024-02-23T05:30:57;6.70;;;6.13;;
46589;SDS011;32313;48.722;9.362;2024-02-23T05:33:22;8.10;;;7.67;;
46589;SDS011;32313;48.722;9.362;2024-02-23T05:35:49;8.33;;;7.70;;
46589;SDS011;32313;48.722;9.362;2024-02-23T05:38:15;7.50;;;7.00;;
46589;SDS011;32313;48.722;9.362;2024-02-23T05:40:41;6.97;;;6.57;;
46589;SDS011;32313;48.722;9.362;2024-02-23T05:43:07;7.47;;;6.97;;
46589;SDS011;32313;48.722;9.362;2024-02-23T05:45:33;7.87;;;7.17;;
46589;SDS011;32313;48.722;9.362;2024-02-23T05:47:59;6.17;;;5.87;;
46589;SDS011;32313;48.722;9.362;2024-02-23T05:50:25;7.30;;;6.80;;
46589;SDS011;32313;48.722;9.362;2024-02-23T05:52:51;7.70;;;7.30;;
46589;SDS011;32313;48.722;9.362;2024-02-23T05:55:18;8.07;;;7.57;;
46589;SDS011;32313;48.722;9.362;2024-02-23T05:57:44;6.87;;;6.47;;
46589;SDS011;32313;48.722;9.362;2024-02-23T06:00:10;7.70;;;7.10;;
46589;SDS011;32313;48.722;9.362;2024-02-23T06:02:39;7.33;;;6.93;;
46589;SDS011;32313;48.722;9.362;2024-02-23T06:05:05;7.27;;;6.83;;
46589;SDS011;32313;48.722;9.362;2024-02-23T06:07:32;7.00;;;6.60;;
46589;SDS011;32313;48.722;9.362;2024-02-23T06:10:00;7.20;;;6.70;;
46589;SDS011;32313;48.722;9.362;2024-02-23T06:12:26;6.83;;;6.33;;
46589;SDS011;32313;48.722;9.362;2024-02-23T06:14:52;6.50;;;6.20;;
46589;SDS011;32313;48.722;9.362;2024-02-23T06:17:19;6.63;;;6.10;;
46589;SDS011;32313;48.722;9.362;2024-02-23T06:19:44;6.80;;;6.03;;
46589;SDS011;32313;48.722;9.362;2024-02-23T06:22:10;6.33;;;5.83;;
46589;SDS011;32313;48.722;9.362;2024-02-23T06:24:37;6.03;;;5.60;;
46589;SDS011;32313;48.722;9.362;2024-02-23T06:27:03;6.60;;;6.20;;
46589;SDS011;32313;48.722;9.362;2024-02-23T06:29:29;7.30;;;6.60;;
46589;SDS011;32313;48.722;9.362;2024-02-23T06:31:55;6.73;;;6.13;;
46589;SDS011;32313;48.722;9.362;2024-02-23T06:34:21;8.83;;;6.90;;
46589;SDS011;32313;48.722;9.362;2024-02-23T06:36:47;7.37;;;6.73;;
46589;SDS011;32313;48.722;9.362;2024-02-23T06:39:12;9.67;;;8.50;;
46589;SDS011;32313;48.722;9.362;2024-02-23T06:41:38;9.57;;;8.77;;
46589;SDS011;32313;48.722;9.362;2024-02-23T06:44:04;8.97;;;8.13;;
46589;SDS011;32313;48.722;9.362;2024-02-23T06:46:30;9.93;;;9.13;;
46589;SDS011;32313;48.722;9.362;2024-02-23T06:48:56;9.20;;;8.50;;
46589;SDS011;32313;48.722;9.362;2024-02-23T06:51:22;9.27;;;8.33;;
46589;SDS011;32313;48.722;9.362;2024-02-23T06:53:47;10.07;;;9.07;;
46589;SDS011;32313;48.722;9.362;2024-02-23T06:56:13;9.30;;;8.63;;
46589;SDS011;32313;48.722;9.362;2024-02-23T06:58:39;9.47;;;8.57;;
46589;SDS011;32313;48.722;9.362;2024-02-23T07:01:05;9.30;;;8.50;;
46589;SDS011;32313;48.722;9.362;2024-02-23T07:03:36;8.50;;;7.80;;
46589;SDS011;32313;48.722;9.362;2024-02-23T07:06:02;12.77;;;8.77;;
46589;SDS011;32313;48.722;9.362;2024-02-23T07:08:28;9.20;;;8.43;;
46589;SDS011;32313;48.722;9.362;2024-02-23T07:10:55;9.63;;;8.57;;
46589;SDS011;32313;48.722;9.362;2024-02-23T07:13:21;9.63;;;8.83;;
46589;SDS011;32313;48.722;9.362;2024-02-23T07:15:46;9.17;;;8.47;;
46589;SDS011;32313;48.722;9.362;2024-02-23T07:18:12;7.80;;;7.10;;
46589;SDS011;32313;48.722;9.362;2024-02-23T07:20:38;7.70;;;7.20;;
46589;SDS011;32313;48.722;9.362;2024-02-23T07:23:04;8.53;;;7.80;;
46589;SDS011;32313;48.722;9.362;2024-02-23T07:25:30;8.10;;;7.53;;
46589;SDS011;32313;48.722;9.362;2024-02-23T07:27:56;7.20;;;6.50;;
46589;SDS011;32313;48.722;9.362;2024-02-23T07:30:21;7.40;;;6.80;;
46589;SDS011;32313;48.722;9.362;2024-02-23T07:32:47;8.53;;;6.73;;
46589;SDS011;32313;48.722;9.362;2024-02-23T07:35:13;7.53;;;6.70;;
46589;SDS011;32313;48.722;9.362;2024-02-23T07:37:39;7.37;;;6.77;;
46589;SDS011;32313;48.722;9.362;2024-02-23T07:40:05;7.87;;;7.00;;
46589;SDS011;32313;48.722;9.362;2024-02-23T07:42:32;6.97;;;6.43;;
46589;SDS011;32313;48.722;9.362;2024-02-23T07:45:00;8.03;;;5.93;;
46589;SDS011;32313;48.722;9.362;2024-02-23T07:47:29;8.27;;;6.70;;
46589;SDS011;32313;48.722;9.362;2024-02-23T07:49:57;7.70;;;7.00;;
46589;SDS011;32313;48.722;9.362;2024-02-23T07:52:23;7.83;;;7.20;;
46589;SDS011;32313;48.722;9.362;2024-02-23T07:54:50;9.57;;;8.50;;
46589;SDS011;32313;48.722;9.362;2024-02-23T07:57:19;13.53;;;9.50;;
46589;SDS011;32313;48.722;9.362;2024-02-23T07:59:45;11.87;;;9.30;;
46589;SDS011;32313;48.722;9.362;2024-02-23T08:02:11;10.13;;;8.20;;
46589;SDS011;32313;48.722;9.362;2024-02-23T08:04:37;9.37;;;6.70;;
46589;SDS011;32313;48.722;9.362;2024-02-23T08:07:03;11.57;;;6.30;;
46589;SDS011;32313;48.722;9.362;2024-02-23T08:09:29;6.50;;;6.00;;
46589;SDS011;32313;48.722;9.362;2024-02-23T08:11:55;6.57;;;5.87;;
46589;SDS011;32313;48.722;9.362;2024-02-23T08:14:21;6.40;;;5.37;;
46589;SDS011;32313;48.722;9.362;2024-02-23T08:16:46;8.63;;;6.50;;
46589;SDS011;32313;48.722;9.362;2024-02-23T08:19:12;6.10;;;5.50;;
46589;SDS011;32313;48.722;9.362;2024-02-23T08:21:38;7.77;;;5.90;;
46589;SDS011;32313;48.722;9.362;2024-02-23T08:24:04;5.90;;;5.30;;
46589;SDS011;32313;48.722;9.362;2024-02-23T08:26:30;5.73;;;5.30;;
46589;SDS011;32313;48.722;9.362;2024-02-23T08:28:56;5.23;;;4.87;;
46589;SDS011;32313;48.722;9.362;2024-02-23T08:31:21;5.07;;;4.67;;
46589;SDS011;32313;48.722;9.362;2024-02-23T08:33:47;5.40;;;4.90;;
46589;SDS011;32313;48.722;9.362;2024-02-23T08:36:12;5.30;;;4.80;;
46589;SDS011;32313;48.722;9.362;2024-02-23T08:38:38;4.70;;;4.40;;
46589;SDS011;32313;48.722;9.362;2024-02-23T08:41:04;4.03;;;3.70;;
46589;SDS011;32313;48.722;9.362;2024-02-23T08:43:29;4.57;;;4.27;;
46589;SDS011;32313;48.722;9.362;2024-02-23T08:45:55;4.60;;;4.10;;
46589;SDS011;32313;48.722;9.362;2024-02-23T08:48:21;4.57;;;4.27;;
46589;SDS011;32313;48.722;9.362;2024-02-23T08:50:47;4.07;;;3.77;;
46589;SDS011;32313;48.722;9.362;2024-02-23T08:53:12;4.70;;;4.23;;
46589;SDS011;32313;48.722;9.362;2024-02-23T08:55:38;4.37;;;4.07;;
46589;SDS011;32313;48.722;9.362;2024-02-23T08:58:04;4.33;;;3.93;;
46589;SDS011;32313;48.722;9.362;2024-02-23T09:00:31;4.53;;;3.97;;
46589;SDS011;32313;48.722;9.362;2024-02-23T09:02:57;4.00;;;3.70;;
46589;SDS011;32313;48.722;9.362;2024-02-23T09:05:23;3.77;;;3.47;;
46589;SDS011;32313;48.722;9.362;2024-02-23T09:07:49;3.83;;;3.60;;
46589;SDS011;32313;48.722;9.362;2024-02-23T09:10:14;4.30;;;4.00;;
46589;SDS011;32313;48.722;9.362;2024-02-23T09:12:40;4.33;;;4.03;;
46589;SDS011;32313;48.722;9.362;2024-02-23T09:15:06;4.57;;;4.20;;
46589;SDS011;32313;48.722;9.362;2024-02-23T09:17:32;4.27;;;4.00;;
46589;SDS011;32313;48.722;9.362;2024-02-23T09:19:58;4.30;;;3.90;;
46589;SDS011;32313;48.722;9.362;2024-02-23T09:22:23;6.67;;;4.03;;
46589;SDS011;32313;48.722;9.362;2024-02-23T09:24:49;4.13;;;3.83;;
46589;SDS011;32313;48.722;9.362;2024-02-23T09:27:15;4.83;;;4.10;;
46589;SDS011;32313;48.722;9.362;2024-02-23T09:29:41;5.37;;;4.33;;
46589;SDS011;32313;48.722;9.362;2024-02-23T09:32:07;4.40;;;4.00;;
46589;SDS011;32313;48.722;9.362;2024-02-23T09:34:33;3.70;;;3.50;;
46589;SDS011;32313;48.722;9.362;2024-02-23T09:36:59;4.00;;;3.70;;
46589;SDS011;32313;48.722;9.362;2024-02-23T09:39:24;4.70;;;3.80;;
46589;SDS011;32313;48.722;9.362;2024-02-23T09:41:55;4.00;;;3.70;;
46589;SDS011;32313;48.722;9.362;2024-02-23T09:44:22;4.03;;;3.60;;
46589;SDS011;32313;48.722;9.362;2024-02-23T09:46:47;4.57;;;3.53;;
46589;SDS011;32313;48.722;9.362;2024-02-23T09:49:17;4.13;;;3.73;;
46589;SDS011;32313;48.722;9.362;2024-02-23T09:51:43;5.07;;;3.57;;
46589;SDS011;32313;48.722;9.362;2024-02-23T09:54:09;4.33;;;3.50;;
46589;SDS011;32313;48.722;9.362;2024-02-23T09:56:35;3.97;;;3.60;;
46589;SDS011;32313;48.722;9.362;2024-02-23T09:59:02;3.20;;;3.00;;
46589;SDS011;32313;48.722;9.362;2024-02-23T10:01:29;3.80;;;3.50;;
46589;SDS011;32313;48.722;9.362;2024-02-23T10:03:59;3.50;;;3.20;;
46589;SDS011;32313;48.722;9.362;2024-02-23T10:06:26;5.10;;;3.60;;
46589;SDS011;32313;48.722;9.362;2024-02-23T10:08:53;4.00;;;3.40;;
46589;SDS011;32313;48.722;9.362;2024-02-23T10:11:21;4.53;;;3.50;;
46589;SDS011;32313;48.722;9.362;2024-02-23T10:13:48;3.63;;;3.33;;
46589;SDS011;32313;48.722;9.362;2024-02-23T10:16:20;7.37;;;3.53;;
46589;SDS011;32313;48.722;9.362;2024-02-23T10:18:47;4.17;;;3.43;;
46589;SDS011;32313;48.722;9.362;2024-02-23T10:21:14;4.03;;;3.27;;
46589;SDS011;32313;48.722;9.362;2024-02-23T10:23:40;4.10;;;3.57;;
46589;SDS011;32313;48.722;9.362;2024-02-23T10:26:06;4.20;;;3.50;;
46589;SDS011;32313;48.722;9.362;2024-02-23T10:28:34;3.63;;;3.20;;
46589;SDS011;32313;48.722;9.362;2024-02-23T10:31:06;5.60;;;3.53;;
46589;SDS011;32313;48.722;9.362;2024-02-23T10:33:31;4.00;;;3.60;;
46589;SDS011;32313;48.722;9.362;2024-02-23T10:35:57;3.20;;;3.00;;
46589;SDS011;32313;48.722;9.362;2024-02-23T10:38:28;3.33;;;3.10;;
46589;SDS011;32313;48.722;9.362;2024-02-23T10:40:57;3.40;;;3.10;;
46589;SDS011;32313;48.722;9.362;2024-02-23T10:43:25;3.30;;;3.00;;
46589;SDS011;32313;48.722;9.362;2024-02-23T10:45:58;4.67;;;3.70;;
46589;SDS011;32313;48.722;9.362;2024-02-23T10:48:27;3.67;;;3.33;;
46589;SDS011;32313;48.722;9.362;2024-02-23T10:50:54;4.10;;;3.17;;
46589;SDS011;32313;48.722;9.362;2024-02-23T10:53:22;4.27;;;3.30;;
46589;SDS011;32313;48.722;9.362;2024-02-23T10:55:51;4.50;;;3.33;;
46589;SDS011;32313;48.722;9.362;2024-02-23T10:58:23;4.27;;;3.40;;
46589;SDS011;32313;48.722;9.362;2024-02-23T11:00:48;4.03;;;3.50;;
46589;SDS011;32313;48.722;9.362;2024-02-23T11:03:15;3.33;;;2.80;;
46589;SDS011;32313;48.722;9.362;2024-02-23T11:05:42;3.73;;;3.10;;
46589;SDS011;32313;48.722;9.362;2024-02-23T11:08:07;5.27;;;3.30;;
46589;SDS011;32313;48.722;9.362;2024-02-23T11:10:43;6.73;;;3.60;;
46589;SDS011;32313;48.722;9.362;2024-02-23T11:13:15;3.83;;;3.43;;
46589;SDS011;32313;48.722;9.362;2024-02-23T11:15:41;3.53;;;3.20;;
46589;SDS011;32313;48.722;9.362;2024-02-23T11:18:28;4.37;;;3.27;;
46589;SDS011;32313;48.722;9.362;2024-02-23T11:20:54;5.07;;;3.30;;
46589;SDS011;32313;48.722;9.362;2024-02-23T11:23:21;6.77;;;3.70;;
46589;SDS011;32313;48.722;9.362;2024-02-23T11:28:30;4.70;;;3.47;;
46589;SDS011;32313;48.722;9.362;2024-02-23T11:30:57;4.43;;;3.17;;
46589;SDS011;32313;48.722;9.362;2024-02-23T11:33:27;3.33;;;3.03;;
46589;SDS011;32313;48.722;9.362;2024-02-23T11:36:05;4.60;;;3.27;;
46589;SDS011;32313;48.722;9.362;2024-02-23T11:38:35;3.90;;;3.50;;
46589;SDS011;32313;48.722;9.362;2024-02-23T11:41:03;3.90;;;3.50;;
46589;SDS011;32313;48.722;9.362;2024-02-23T11:43:30;4.70;;;3.20;;
46589;SDS011;32313;48.722;9.362;2024-02-23T11:45:59;5.77;;;3.37;;
46589;SDS011;32313;48.722;9.362;2024-02-23T11:48:25;5.13;;;3.73;;
46589;SDS011;32313;48.722;9.362;2024-02-23T11:50:51;7.47;;;4.30;;
46589;SDS011;32313;48.722;9.362;2024-02-23T11:53:17;3.97;;;3.40;;
46589;SDS011;32313;48.722;9.362;2024-02-23T11:55:44;4.07;;;3.60;;
46589;SDS011;32313;48.722;9.362;2024-02-23T11:58:10;3.30;;;3.10;;
46589;SDS011;32313;48.722;9.362;2024-02-23T12:00:36;3.60;;;3.27;;
46589;SDS011;32313;48.722;9.362;2024-02-23T12:03:02;6.20;;;3.57;;
46589;SDS011;32313;48.722;9.362;2024-02-23T12:05:28;3.97;;;3.10;;
46589;SDS011;32313;48.722;9.362;2024-02-23T12:07:53;4.87;;;3.30;;
46589;SDS011;32313;48.722;9.362;2024-02-23T12:10:19;4.00;;;3.40;;
46589;SDS011;32313;48.722;9.362;2024-02-23T12:12:45;4.50;;;3.10;;
46589;SDS011;32313;48.722;9.362;2024-02-23T12:15:11;6.33;;;3.30;;
46589;SDS011;32313;48.722;9.362;2024-02-23T12:17:37;3.80;;;3.10;;
46589;SDS011;32313;48.722;9.362;2024-02-23T12:20:03;4.47;;;3.10;;
46589;SDS011;32313;48.722;9.362;2024-02-23T12:22:29;3.33;;;3.03;;
46589;SDS011;32313;48.722;9.362;2024-02-23T12:24:58;4.33;;;3.73;;
46589;SDS011;32313;48.722;9.362;2024-02-23T12:27:25;4.83;;;3.10;;
46589;SDS011;32313;48.722;9.362;2024-02-23T12:29:52;3.73;;;3.33;;
46589;SDS011;32313;48.722;9.362;2024-02-23T12:32:19;5.47;;;3.57;;
46589;SDS011;32313;48.722;9.362;2024-02-23T12:34:45;4.63;;;3.23;;
46589;SDS011;32313;48.722;9.362;2024-02-23T12:37:15;3.43;;;3.13;;
46589;SDS011;32313;48.722;9.362;2024-02-23T12:39:42;4.17;;;3.43;;
46589;SDS011;32313;48.722;9.362;2024-02-23T12:42:08;3.43;;;2.83;;
46589;SDS011;32313;48.722;9.362;2024-02-23T12:44:34;4.60;;;2.97;;
46589;SDS011;32313;48.722;9.362;2024-02-23T12:47:00;3.43;;;3.10;;
46589;SDS011;32313;48.722;9.362;2024-02-23T12:49:26;4.43;;;3.47;;
46589;SDS011;32313;48.722;9.362;2024-02-23T12:51:51;4.80;;;3.40;;
46589;SDS011;32313;48.722;9.362;2024-02-23T12:54:17;3.47;;;3.17;;
46589;SDS011;32313;48.722;9.362;2024-02-23T12:56:43;4.40;;;3.40;;
46589;SDS011;32313;48.722;9.362;2024-02-23T12:59:09;6.83;;;3.37;;
46589;SDS011;32313;48.722;9.362;2024-02-23T13:01:35;5.03;;;2.90;;
46589;SDS011;32313;48.722;9.362;2024-02-23T13:04:03;8.63;;;3.57;;
46589;SDS011;32313;48.722;9.362;2024-02-23T13:06:35;3.20;;;3.00;;
46589;SDS011;32313;48.722;9.362;2024-02-23T13:09:03;5.47;;;3.20;;
46589;SDS011;32313;48.722;9.362;2024-02-23T13:11:29;3.43;;;3.13;;
46589;SDS011;32313;48.722;9.362;2024-02-23T13:13:55;6.67;;;3.20;;
46589;SDS011;32313;48.722;9.362;2024-02-23T13:16:21;4.73;;;3.57;;
46589;SDS011;32313;48.722;9.362;2024-02-23T13:18:47;3.43;;;3.13;;
46589;SDS011;32313;48.722;9.362;2024-02-23T13:21:13;5.93;;;3.03;;
46589;SDS011;32313;48.722;9.362;2024-02-23T13:23:39;4.00;;;3.00;;
46589;SDS011;32313;48.722;9.362;2024-02-23T13:26:07;4.57;;;3.20;;
46589;SDS011;32313;48.722;9.362;2024-02-23T13:28:32;7.93;;;3.17;;
46589;SDS011;32313;48.722;9.362;2024-02-23T13:30:58;4.20;;;2.87;;
46589;SDS011;32313;48.722;9.362;2024-02-23T13:33:24;6.30;;;3.37;;
46589;SDS011;32313;48.722;9.362;2024-02-23T13:35:50;5.50;;;3.20;;
46589;SDS011;32313;48.722;9.362;2024-02-23T13:38:16;5.03;;;3.10;;
46589;SDS011;32313;48.722;9.362;2024-02-23T13:40:42;6.30;;;3.07;;
46589;SDS011;32313;48.722;9.362;2024-02-23T13:43:08;4.03;;;3.30;;
46589;SDS011;32313;48.722;9.362;2024-02-23T13:45:47;6.67;;;3.23;;
46589;SDS011;32313;48.722;9.362;2024-02-23T13:48:14;6.43;;;3.30;;
46589;SDS011;32313;48.722;9.362;2024-02-23T13:50:40;4.93;;;3.00;;
46589;SDS011;32313;48.722;9.362;2024-02-23T13:53:05;4.50;;;3.17;;
46589;SDS011;32313;48.722;9.362;2024-02-23T13:55:31;6.17;;;3.27;;
46589;SDS011;32313;48.722;9.362;2024-02-23T13:57:57;4.77;;;3.93;;
46589;SDS011;32313;48.722;9.362;2024-02-23T14:00:23;4.87;;;3.00;;
46589;SDS011;32313;48.722;9.362;2024-02-23T14:02:48;7.87;;;3.40;;
46589;SDS011;32313;48.722;9.362;2024-02-23T14:05:14;7.87;;;3.17;;
46589;SDS011;32313;48.722;9.362;2024-02-23T14:07:40;6.30;;;3.60;;
46589;SDS011;32313;48.722;9.362;2024-02-23T14:10:06;3.97;;;3.00;;
46589;SDS011;32313;48.722;9.362;2024-02-23T14:12:32;5.00;;;3.50;;
46589;SDS011;32313;48.722;9.362;2024-02-23T14:14:58;4.83;;;3.30;;
46589;SDS011;32313;48.722;9.362;2024-02-23T14:17:24;7.23;;;3.33;;
46589;SDS011;32313;48.722;9.362;2024-02-23T14:19:49;4.67;;;3.30;;
46589;SDS011;32313;48.722;9.362;2024-02-23T14:22:16;5.57;;;3.60;;
46589;SDS011;32313;48.722;9.362;2024-02-23T14:24:42;4.87;;;3.57;;
46589;SDS011;32313;48.722;9.362;2024-02-23T14:27:08;5.10;;;3.23;;
46589;SDS011;32313;48.722;9.362;2024-02-23T14:29:33;4.50;;;3.47;;
46589;SDS011;32313;48.722;9.362;2024-02-23T14:31:59;4.40;;;3.50;;
46589;SDS011;32313;48.722;9.362;2024-02-23T14:34:26;7.00;;;4.00;;
46589;SDS011;32313;48.722;9.362;2024-02-23T14:36:52;5.43;;;3.20;;
46589;SDS011;32313;48.722;9.362;2024-02-23T14:39:18;6.03;;;3.53;;
46589;SDS011;32313;48.722;9.362;2024-02-23T14:41:43;7.00;;;3.50;;
46589;SDS011;32313;48.722;9.362;2024-02-23T14:44:09;6.73;;;3.90;;
46589;SDS011;32313;48.722;9.362;2024-02-23T14:46:35;3.73;;;3.17;;